Time;durP1;ratioP1;P1;durP2;ratioP2;P2;SDS_P1;SDS_P2;PMS_P1;PMS_P2;Temp;Humidity;BMP_temperature;BMP_pressure;BME280_temperature;BME280_humidity;BME280_pressure;Samples;Min_cycle;Max_cycle;Signal;HPM_P1;HPM_P2
2023/09/26 00:00:21;;;;;;;18.33;3.20;;;;;;;15.06;79.05;100408.91;5009529;28;20559;-46
2023/09/26 00:02:51;;;;;;;19.98;3.90;;;;;;;15.02;79.02;100410.88;5010742;28;20431;-45
2023/09/26 00:05:19;;;;;;;15.02;4.18;;;;;;;14.99;79.09;100400.47;5010811;28;20042;-44
2023/09/26 00:07:49;;;;;;;16.95;3.40;;;;;;;14.99;79.09;100403.28;5007086;28;20057;-46
2023/09/26 00:10:16;;;;;;;11.68;2.60;;;;;;;14.99;79.04;100400.47;5009838;28;20131;-45
2023/09/26 00:12:43;;;;;;;17.65;3.42;;;;;;;14.99;78.79;100386.53;5009721;28;20048;-44
2023/09/26 00:15:11;;;;;;;19.65;2.80;;;;;;;14.99;78.56;100392.13;5009767;28;20061;-45
2023/09/26 00:17:39;;;;;;;17.02;3.92;;;;;;;14.98;78.58;100384.97;5010770;28;20049;-49
2023/09/26 00:20:27;;;;;;;12.27;3.15;;;;;;;14.95;78.74;100390.50;5005597;28;20042;-44
2023/09/26 00:22:55;;;;;;;27.30;3.72;;;;;;;14.93;78.68;100388.06;5010843;28;20136;-46
2023/09/26 00:25:23;;;;;;;21.40;6.05;;;;;;;14.93;78.32;100382.50;5010536;28;20040;-47
2023/09/26 00:27:51;;;;;;;15.52;4.05;;;;;;;14.94;78.41;100383.31;5010181;28;20037;-44
2023/09/26 00:30:19;;;;;;;18.65;3.00;;;;;;;14.93;78.32;100368.56;5009644;28;20045;-45
2023/09/26 00:32:46;;;;;;;16.48;4.18;;;;;;;14.94;78.08;100372.16;5009719;28;20050;-45
2023/09/26 00:35:13;;;;;;;18.42;3.17;;;;;;;14.92;78.22;100375.34;5009319;28;20038;-44
2023/09/26 00:37:41;;;;;;;11.55;4.00;;;;;;;14.92;78.12;100372.53;5010022;28;20053;-44
2023/09/26 00:40:10;;;;;;;10.80;3.30;;;;;;;14.93;78.11;100362.97;5008120;28;20076;-44
2023/09/26 00:42:38;;;;;;;23.33;4.93;;;;;;;14.92;77.91;100358.59;5010369;28;20045;-45
2023/09/26 00:45:05;;;;;;;12.52;2.80;;;;;;;14.92;77.89;100353.03;5009818;28;20138;-45
2023/09/26 00:47:34;;;;;;;14.43;3.50;;;;;;;14.93;77.70;100354.63;5008500;28;20046;-44
2023/09/26 00:50:14;;;;;;;19.02;3.58;;;;;;;14.92;77.80;100336.31;5009727;28;20050;-45
2023/09/26 00:52:46;;;;;;;17.58;3.05;;;;;;;14.91;77.79;100342.25;5004478;28;20034;-46
2023/09/26 00:55:17;;;;;;;11.70;3.00;;;;;;;14.91;77.59;100345.03;5009999;28;20042;-46
2023/09/26 00:57:44;;;;;;;16.45;4.05;;;;;;;14.90;77.59;100349.84;5009754;28;20136;-45
2023/09/26 01:00:15;;;;;;;16.23;4.32;;;;;;;14.87;77.59;100350.59;5008512;28;20426;-47
2023/09/26 01:02:42;;;;;;;14.00;2.55;;;;;;;14.88;77.82;100356.97;5007167;28;20104;-44
2023/09/26 01:05:09;;;;;;;13.02;3.60;;;;;;;14.88;77.70;100346.59;5009595;28;20466;-45
2023/09/26 01:07:38;;;;;;;14.68;3.90;;;;;;;14.89;77.55;100336.25;5009623;28;20034;-46
2023/09/26 01:10:08;;;;;;;19.02;5.05;;;;;;;14.89;77.39;100345.44;5008940;28;20511;-44
2023/09/26 01:12:37;;;;;;;20.05;3.08;;;;;;;14.88;77.04;100332.66;5008218;28;20072;-46
2023/09/26 01:15:06;;;;;;;17.52;3.88;;;;;;;14.89;76.82;100331.50;5009448;28;20053;-45
2023/09/26 01:17:32;;;;;;;10.25;2.63;;;;;;;14.88;76.57;100307.59;5009719;28;20444;-45
2023/09/26 01:20:00;;;;;;;10.73;2.85;;;;;;;14.87;76.07;100311.56;5009087;28;20696;-44
2023/09/26 01:22:29;;;;;;;18.55;2.97;;;;;;;14.88;75.96;100302.00;5008019;28;20584;-45
2023/09/26 01:24:56;;;;;;;13.40;2.90;;;;;;;14.87;75.69;100294.84;5007935;28;20072;-44
2023/09/26 01:27:23;;;;;;;17.58;3.25;;;;;;;14.86;75.50;100295.22;5008525;28;20120;-45
2023/09/26 01:29:51;;;;;;;11.63;3.83;;;;;;;14.85;75.31;100288.84;5009198;28;20049;-44
2023/09/26 01:32:18;;;;;;;11.90;3.10;;;;;;;14.86;75.16;100284.88;5007716;28;20048;-44
2023/09/26 01:34:45;;;;;;;26.50;4.15;;;;;;;14.87;75.07;100288.47;5008422;28;20452;-44
2023/09/26 01:37:11;;;;;;;17.27;2.88;;;;;;;14.85;75.02;100274.91;5007759;28;20042;-44
2023/09/26 01:39:40;;;;;;;23.20;5.20;;;;;;;14.84;75.05;100278.09;5007929;28;20705;-44
2023/09/26 01:42:07;;;;;;;9.25;2.65;;;;;;;14.84;74.95;100264.97;5008448;28;20133;-45
2023/09/26 01:44:34;;;;;;;15.45;3.80;;;;;;;14.84;74.95;100259.38;5009389;28;20042;-45
2023/09/26 01:47:02;;;;;;;17.25;4.75;;;;;;;14.84;75.05;100258.59;5009239;28;20112;-45
2023/09/26 01:49:30;;;;;;;14.02;2.92;;;;;;;14.82;74.79;100253.41;5009152;28;20050;-45
2023/09/26 01:51:57;;;;;;;14.32;2.85;;;;;;;14.81;74.95;100243.44;5007543;28;20662;-44
2023/09/26 01:54:25;;;;;;;9.77;2.72;;;;;;;14.82;74.69;100235.88;5007186;28;20496;-47
2023/09/26 01:56:52;;;;;;;16.30;3.78;;;;;;;14.81;74.91;100240.66;5009215;28;20469;-46
2023/09/26 01:59:19;;;;;;;12.30;3.90;;;;;;;14.80;74.98;100236.25;5008768;28;20046;-45
2023/09/26 02:01:45;;;;;;;16.70;4.32;;;;;;;14.78;75.02;100238.63;5008002;28;20468;-47
2023/09/26 02:04:12;;;;;;;17.73;4.35;;;;;;;14.76;75.26;100238.22;5008754;28;20053;-44
2023/09/26 02:06:39;;;;;;;16.25;4.88;;;;;;;14.74;75.67;100240.59;5007504;28;20150;-44
2023/09/26 02:09:08;;;;;;;18.17;5.63;;;;;;;14.72;75.92;100237.38;5008442;28;20049;-44
2023/09/26 02:11:35;;;;;;;19.60;4.50;;;;;;;14.71;76.06;100246.94;5011070;28;20120;-45
2023/09/26 02:14:02;;;;;;;17.77;3.88;;;;;;;14.68;76.20;100219.84;5012483;28;20530;-45
2023/09/26 02:16:29;;;;;;;21.15;4.40;;;;;;;14.66;76.25;100213.84;5011778;28;20052;-44
2023/09/26 02:18:56;;;;;;;14.23;3.63;;;;;;;14.65;76.49;100215.03;5009611;28;20074;-45
2023/09/26 02:21:23;;;;;;;18.38;2.92;;;;;;;14.63;76.69;100204.28;5011103;28;20044;-45
2023/09/26 02:23:50;;;;;;;18.38;3.40;;;;;;;14.61;76.66;100200.28;5012068;28;20778;-45
2023/09/26 02:26:18;;;;;;;15.38;3.08;;;;;;;14.61;76.94;100191.94;5010370;28;20403;-45
2023/09/26 02:28:45;;;;;;;13.75;2.97;;;;;;;14.60;76.89;100196.69;5012135;28;20046;-45
2023/09/26 02:31:15;;;;;;;16.80;2.70;;;;;;;14.58;77.00;100196.28;5012000;28;20049;-44
2023/09/26 02:33:43;;;;;;;18.05;3.35;;;;;;;14.56;77.32;100189.50;5012092;28;20929;-44
2023/09/26 02:36:09;;;;;;;13.48;3.20;;;;;;;14.55;77.33;100190.69;5009995;28;20049;-45
2023/09/26 02:38:36;;;;;;;13.43;2.75;;;;;;;14.55;77.37;100174.75;5011677;28;20095;-45
2023/09/26 02:41:03;;;;;;;12.13;3.45;;;;;;;14.55;77.55;100171.19;5011511;28;20575;-44
2023/09/26 02:43:32;;;;;;;26.45;5.30;;;;;;;14.53;77.67;100157.63;5012206;28;20077;-46
2023/09/26 02:45:59;;;;;;;11.07;2.95;;;;;;;14.53;77.72;100167.97;5010678;28;20037;-45
2023/09/26 02:48:26;;;;;;;16.50;3.15;;;;;;;14.50;78.02;100146.47;5009990;28;20046;-45
2023/09/26 02:51:02;;;;;;;13.43;3.45;;;;;;;14.49;78.06;100140.09;5008986;28;20077;-45
2023/09/26 02:53:29;;;;;;;14.70;4.03;;;;;;;14.49;78.31;100148.44;5011338;28;20507;-44
2023/09/26 02:55:56;;;;;;;12.85;4.15;;;;;;;14.50;78.28;100146.47;5011576;28;20050;-45
2023/09/26 02:58:23;;;;;;;16.17;4.80;;;;;;;14.50;78.27;100138.13;5012225;28;20049;-44
2023/09/26 03:00:50;;;;;;;20.70;3.33;;;;;;;14.51;78.58;100142.47;5043671;23;20090;-46
2023/09/26 03:03:17;;;;;;;14.75;3.35;;;;;;;14.53;78.63;100134.56;4990408;28;20043;-46
2023/09/26 03:05:53;;;;;;;17.92;2.97;;;;;;;14.53;78.80;100138.13;4991840;28;20057;-46
2023/09/26 03:08:20;;;;;;;30.10;3.90;;;;;;;14.55;78.74;100134.97;4992170;28;20050;-46
2023/09/26 03:10:47;;;;;;;13.45;3.13;;;;;;;14.54;78.62;100133.34;4991504;28;20129;-47
2023/09/26 03:13:14;;;;;;;13.50;3.05;;;;;;;14.55;79.05;100132.19;4991534;28;20057;-45
2023/09/26 03:15:41;;;;;;;15.02;2.80;;;;;;;14.54;79.21;100122.22;4991246;28;20046;-46
2023/09/26 03:18:08;;;;;;;20.00;3.22;;;;;;;14.54;79.42;100111.88;4991673;28;20052;-46
2023/09/26 03:20:38;;;;;;;13.85;3.03;;;;;;;14.55;79.43;100109.88;4989517;28;20046;-46
2023/09/26 03:23:06;;;;;;;10.88;3.00;;;;;;;14.57;79.50;100101.94;4990603;28;20392;-47
2023/09/26 03:25:32;;;;;;;29.20;4.85;;;;;;;14.58;79.71;100097.97;4991983;28;20057;-45
2023/09/26 03:28:03;;;;;;;16.73;4.38;;;;;;;14.60;79.80;100101.16;4991489;28;20057;-46
2023/09/26 03:30:30;;;;;;;11.38;3.03;;;;;;;14.62;79.86;100093.22;4991654;28;20044;-46
2023/09/26 03:32:58;;;;;;;13.15;3.05;;;;;;;14.67;79.78;100101.22;4991609;28;20523;-48
2023/09/26 03:35:25;;;;;;;18.48;2.67;;;;;;;14.72;79.78;100098.06;4972801;28;20152;-46
2023/09/26 03:37:51;;;;;;;10.18;3.00;;;;;;;14.76;79.64;100092.50;4990370;28;20047;-46
2023/09/26 03:40:18;;;;;;;10.00;2.60;;;;;;;14.77;79.62;100089.34;4991618;28;20053;-45
2023/09/26 03:42:45;;;;;;;10.82;1.88;;;;;;;14.80;79.76;100077.41;4991481;28;20048;-47
2023/09/26 03:45:12;;;;;;;16.98;2.45;;;;;;;14.85;79.86;100068.66;4990139;28;20373;-52
2023/09/26 03:47:39;;;;;;;10.70;3.10;;;;;;;14.90;79.63;100065.53;4991290;28;20389;-46
2023/09/26 03:50:08;;;;;;;14.75;2.08;;;;;;;14.92;79.71;100068.72;4990978;28;20078;-46
2023/09/26 03:52:35;;;;;;;12.85;3.10;;;;;;;14.92;79.62;100056.78;4990383;28;20038;-45
2023/09/26 03:55:02;;;;;;;11.77;2.15;;;;;;;14.94;79.52;100076.69;4989843;28;20484;-47
2023/09/26 03:57:33;;;;;;;14.68;3.30;;;;;;;14.93;79.78;100075.09;4991092;28;20428;-46
2023/09/26 04:00:00;;;;;;;15.05;3.47;;;;;;;14.94;79.77;100065.53;4990489;28;20039;-46
2023/09/26 04:02:29;;;;;;;12.05;2.38;;;;;;;14.93;79.83;100061.94;4990336;28;20058;-46
2023/09/26 04:04:55;;;;;;;12.75;3.10;;;;;;;14.94;79.76;100055.19;4988659;28;20073;-46
2023/09/26 04:07:27;;;;;;;8.63;2.17;;;;;;;14.94;80.00;100063.56;4990194;28;20058;-46
2023/09/26 04:09:54;;;;;;;12.48;2.17;;;;;;;14.95;79.47;100050.41;4990040;28;20408;-49
2023/09/26 04:12:21;;;;;;;14.65;2.60;;;;;;;14.95;79.86;100034.50;4991094;28;20050;-46
2023/09/26 04:14:48;;;;;;;17.90;2.40;;;;;;;14.95;79.78;100039.25;4990096;28;20046;-46
2023/09/26 04:17:15;;;;;;;8.15;2.60;;;;;;;14.97;79.76;100042.47;4988691;28;20054;-47
2023/09/26 04:19:46;;;;;;;11.02;2.75;;;;;;;14.98;79.58;100028.16;4987853;28;20136;-46
2023/09/26 04:22:13;;;;;;;10.85;2.83;;;;;;;14.99;79.43;100021.34;4971261;28;20488;-45
2023/09/26 04:24:40;;;;;;;11.50;2.75;;;;;;;15.01;79.29;100024.53;4990678;28;20574;-48
2023/09/26 04:27:06;;;;;;;10.25;1.85;;;;;;;15.01;79.30;100016.19;4990719;28;20056;-47
2023/09/26 04:29:34;;;;;;;11.10;2.33;;;;;;;15.02;79.20;100014.19;4990589;28;20046;-46
2023/09/26 04:32:01;;;;;;;12.68;2.65;;;;;;;15.01;79.08;100015.41;4990543;28;20046;-46
2023/09/26 04:34:29;;;;;;;10.00;2.20;;;;;;;15.00;79.13;100009.03;4988913;28;20152;-48
2023/09/26 04:36:56;;;;;;;11.00;2.40;;;;;;;15.01;79.12;100005.03;4990068;28;20054;-45
2023/09/26 04:39:23;;;;;;;8.80;2.30;;;;;;;15.02;79.06;100017.78;4990201;28;20069;-45
2023/09/26 04:41:50;;;;;;;14.65;2.40;;;;;;;15.02;79.01;100006.63;4990595;28;20066;-45
2023/09/26 04:44:18;;;;;;;12.40;2.97;;;;;;;15.01;79.11;100007.81;4990552;28;20393;-47
2023/09/26 04:46:45;;;;;;;13.93;2.67;;;;;;;15.00;78.98;99997.88;4990856;28;20054;-46
2023/09/26 04:49:12;;;;;;;5.78;2.03;;;;;;;15.01;79.21;100001.47;4990166;28;20093;-46
2023/09/26 04:51:39;;;;;;;19.98;2.50;;;;;;;15.00;79.24;100003.44;4989945;28;20065;-47
2023/09/26 04:54:06;;;;;;;12.63;2.90;;;;;;;14.98;79.26;99994.69;4989430;28;20046;-45
2023/09/26 04:56:35;;;;;;;16.63;3.75;;;;;;;14.96;79.51;99988.69;4988560;28;20137;-47
2023/09/26 04:59:02;;;;;;;16.08;2.75;;;;;;;14.96;79.63;99991.47;4989349;28;20081;-46
2023/09/26 05:01:29;;;;;;;10.82;2.70;;;;;;;14.97;79.61;99983.91;4988191;28;20085;-46
2023/09/26 05:03:56;;;;;;;13.50;2.55;;;;;;;14.97;79.73;99970.78;4989157;28;20070;-46
2023/09/26 05:06:23;;;;;;;12.00;3.17;;;;;;;14.96;79.87;99974.75;4989584;28;20569;-46
2023/09/26 05:08:50;;;;;;;14.63;2.20;;;;;;;14.96;80.10;99973.94;4989261;28;20068;-46
2023/09/26 05:11:17;;;;;;;14.55;2.65;;;;;;;14.94;80.08;99957.63;4988889;28;20038;-46
2023/09/26 05:13:44;;;;;;;14.23;2.35;;;;;;;14.91;80.48;99958.41;4988877;28;20143;-46
2023/09/26 05:16:14;;;;;;;16.63;3.03;;;;;;;14.91;80.64;99957.59;4985516;28;20065;-46
2023/09/26 05:18:41;;;;;;;11.30;3.88;;;;;;;14.89;80.75;99949.66;4987508;28;20042;-45
2023/09/26 05:21:09;;;;;;;12.82;2.38;;;;;;;14.88;81.06;99945.25;4989082;28;20039;-46
2023/09/26 05:23:37;;;;;;;13.70;3.10;;;;;;;14.88;81.20;99930.56;4989652;28;20049;-46
2023/09/26 05:26:09;;;;;;;14.30;2.85;;;;;;;14.89;81.37;99946.88;4987195;28;20054;-51
2023/09/26 05:28:36;;;;;;;19.13;3.63;;;;;;;14.89;81.73;99929.34;4989037;28;20145;-48
2023/09/26 05:31:05;;;;;;;15.27;3.55;;;;;;;14.91;81.82;99938.09;4988955;28;20046;-51
2023/09/26 05:33:32;;;;;;;20.95;4.22;;;;;;;14.90;81.87;99930.94;4989241;28;20153;-47
2023/09/26 05:35:59;;;;;;;16.23;5.93;;;;;;;14.93;82.03;99930.16;4985683;28;20042;-46
2023/09/26 05:38:26;;;;;;;9.90;2.40;;;;;;;14.94;81.85;99926.16;4988301;28;20151;-47
2023/09/26 05:40:52;;;;;;;11.80;3.30;;;;;;;14.95;82.04;99928.56;4988965;28;20053;-46
2023/09/26 05:43:20;;;;;;;13.57;3.50;;;;;;;14.98;81.93;99938.13;4988940;28;20048;-48
2023/09/26 05:45:53;;;;;;;15.15;3.63;;;;;;;14.98;82.07;99933.38;4986891;28;20053;-47
2023/09/26 05:48:20;;;;;;;40.50;5.70;;;;;;;14.99;82.21;99932.16;4987497;28;20042;-45
2023/09/26 05:50:47;;;;;;;18.05;4.90;;;;;;;14.98;82.17;99927.78;4987342;28;20050;-47
2023/09/26 05:53:14;;;;;;;17.33;3.38;;;;;;;15.01;82.25;99920.63;4988404;28;20042;-46
2023/09/26 05:55:41;;;;;;;14.48;2.80;;;;;;;15.01;82.41;99923.41;4988076;28;20038;-48
2023/09/26 05:58:08;;;;;;;15.38;3.13;;;;;;;15.01;82.60;99924.19;4988887;28;20046;-48
2023/09/26 06:00:36;;;;;;;14.82;2.65;;;;;;;15.01;82.83;99913.03;4986999;28;20051;-49
2023/09/26 06:03:03;;;;;;;13.60;2.95;;;;;;;15.03;82.62;99913.47;4988278;28;20042;-46
2023/09/26 06:05:30;;;;;;;15.45;4.75;;;;;;;15.04;82.68;99912.25;4988916;28;20046;-47
2023/09/26 06:07:57;;;;;;;16.70;3.35;;;;;;;15.06;82.69;99906.31;4987363;28;20096;-46
2023/09/26 06:10:24;;;;;;;20.58;4.55;;;;;;;15.08;82.70;99915.88;4988882;28;20053;-46
2023/09/26 06:12:53;;;;;;;18.35;2.92;;;;;;;15.09;82.67;99895.13;4987652;28;20050;-46
2023/09/26 06:15:20;;;;;;;16.55;3.33;;;;;;;15.11;82.56;99898.34;4987069;28;20540;-45
2023/09/26 06:17:47;;;;;;;12.77;2.78;;;;;;;15.12;82.52;99899.94;4987330;28;20050;-46
2023/09/26 06:20:14;;;;;;;15.75;3.80;;;;;;;15.16;82.53;99917.47;4988926;28;20577;-46
2023/09/26 06:22:40;;;;;;;9.77;2.35;;;;;;;15.16;82.56;99914.69;4970716;28;20041;-47
2023/09/26 06:25:08;;;;;;;15.45;2.70;;;;;;;15.16;82.66;99914.69;4987969;28;20065;-45
2023/09/26 06:27:37;;;;;;;9.85;2.30;;;;;;;15.15;82.71;99915.88;4988239;28;20464;-45
2023/09/26 06:30:05;;;;;;;10.60;2.70;;;;;;;15.14;82.79;99907.91;4986210;28;20389;-46
2023/09/26 06:32:34;;;;;;;13.98;2.70;;;;;;;15.12;82.98;99894.34;4986437;28;20109;-46
2023/09/26 06:35:01;;;;;;;10.98;2.25;;;;;;;15.09;82.98;99911.09;4988273;28;20046;-45
2023/09/26 06:37:28;;;;;;;9.60;2.85;;;;;;;15.07;83.37;99903.09;4988064;28;20153;-48
2023/09/26 06:40:00;;;;;;;9.75;2.85;;;;;;;15.05;83.50;99908.28;4986890;28;20050;-45
2023/09/26 06:42:27;;;;;;;8.02;2.78;;;;;;;15.02;83.83;99905.47;4988366;28;20042;-45
2023/09/26 06:44:54;;;;;;;7.70;1.85;;;;;;;15.00;83.86;99908.69;4971086;28;20062;-44
2023/09/26 06:47:21;;;;;;;8.85;1.67;;;;;;;14.97;84.16;99912.25;4989054;28;20038;-44
2023/09/26 06:49:48;;;;;;;4.30;1.45;;;;;;;14.94;84.24;99915.81;4988997;28;20043;-45
2023/09/26 06:52:16;;;;;;;8.90;1.65;;;;;;;14.93;84.62;99919.78;4989789;28;20065;-46
2023/09/26 06:54:43;;;;;;;9.65;1.85;;;;;;;14.91;84.75;99918.59;4987984;28;20042;-45
2023/09/26 06:57:12;;;;;;;8.70;1.90;;;;;;;14.88;85.17;99906.25;4991670;28;20046;-45
2023/09/26 06:59:39;;;;;;;8.75;1.52;;;;;;;14.85;85.24;99907.03;4992474;28;20074;-44
2023/09/26 07:02:08;;;;;;;7.93;1.75;;;;;;;14.83;85.56;99905.81;4991441;28;20136;-44
2023/09/26 07:04:36;;;;;;;3.72;1.40;;;;;;;14.78;85.92;99904.22;4992369;28;20842;-44
2023/09/26 07:07:03;;;;;;;9.63;2.13;;;;;;;14.76;86.14;99903.84;4993369;28;20096;-44
2023/09/26 07:09:29;;;;;;;6.53;2.00;;;;;;;14.75;86.43;99907.81;4992119;28;20510;-44
2023/09/26 07:11:56;;;;;;;7.55;2.17;;;;;;;14.73;86.67;99895.44;4992005;28;20065;-46
2023/09/26 07:14:23;;;;;;;5.43;1.45;;;;;;;14.72;87.08;99902.25;4991175;28;20042;-46
2023/09/26 07:16:51;;;;;;;6.05;2.08;;;;;;;14.72;87.26;99914.16;4989703;28;20042;-45
2023/09/26 07:19:18;;;;;;;5.85;1.35;;;;;;;14.72;87.75;99919.72;4990713;28;20047;-45
2023/09/26 07:21:45;;;;;;;4.95;0.88;;;;;;;14.70;87.75;99930.47;4991714;28;20407;-44
2023/09/26 07:24:12;;;;;;;7.07;0.98;;;;;;;14.68;88.11;99932.06;4992027;28;20568;-44
2023/09/26 07:26:40;;;;;;;4.30;1.25;;;;;;;14.66;88.22;99920.50;4987952;28;20518;-44
2023/09/26 07:29:08;;;;;;;6.72;0.73;;;;;;;14.64;88.33;99915.31;4988932;28;20054;-44
2023/09/26 07:31:35;;;;;;;3.15;1.00;;;;;;;14.63;88.49;99908.16;4990379;28;20448;-44
2023/09/26 07:34:02;;;;;;;2.05;0.63;;;;;;;14.62;88.66;99903.78;4967955;28;20623;-44
2023/09/26 07:36:32;;;;;;;1.17;0.60;;;;;;;14.62;88.78;99921.28;4992298;28;20050;-45
2023/09/26 07:38:59;;;;;;;5.20;0.55;;;;;;;14.60;89.00;99918.13;4990986;28;20046;-44
2023/09/26 07:41:29;;;;;;;4.57;1.30;;;;;;;14.61;89.20;99918.91;4990053;28;20491;-45
2023/09/26 07:43:56;;;;;;;5.70;1.33;;;;;;;14.59;89.49;99922.06;4988135;28;20047;-45
2023/09/26 07:46:24;;;;;;;2.25;0.60;;;;;;;14.60;89.63;99929.25;4991358;28;20058;-44
2023/09/26 07:48:51;;;;;;;3.50;0.57;;;;;;;14.60;89.73;99934.81;4990086;28;20076;-45
2023/09/26 07:51:18;;;;;;;2.88;0.47;;;;;;;14.60;90.14;99940.41;4989887;28;20053;-44
2023/09/26 07:53:45;;;;;;;0.68;0.32;;;;;;;14.62;90.17;99942.78;4990474;28;20159;-44
2023/09/26 07:56:13;;;;;;;6.00;1.13;;;;;;;14.63;90.14;99939.63;4990614;28;20085;-44
2023/09/26 07:58:40;;;;;;;3.50;0.50;;;;;;;14.67;90.13;99945.19;4988133;28;20038;-48
2023/09/26 08:01:08;;;;;;;5.38;1.65;;;;;;;14.70;90.16;99946.38;4985950;28;20070;-50
2023/09/26 08:03:38;;;;;;;1.67;0.60;;;;;;;14.71;89.95;99951.59;4990797;28;20416;-47
2023/09/26 08:06:07;;;;;;;1.35;0.52;;;;;;;14.73;90.22;99948.41;4990884;28;20050;-50
2023/09/26 08:08:34;;;;;;;3.08;0.60;;;;;;;14.72;90.10;99957.97;4989835;28;20109;-51
2023/09/26 08:11:10;;;;;;;1.98;0.65;;;;;;;14.72;90.21;99958.75;4990440;28;20046;-49
2023/09/26 08:13:39;;;;;;;4.03;0.80;;;;;;;14.75;90.02;99955.16;4990963;28;20070;-52
2023/09/26 08:16:06;;;;;;;2.03;0.52;;;;;;;14.79;90.15;99963.56;4987960;28;20125;-51
2023/09/26 08:18:34;;;;;;;5.10;1.98;;;;;;;14.82;90.04;99974.72;4988793;28;20057;-52
2023/09/26 08:21:01;;;;;;;5.78;0.90;;;;;;;14.84;90.26;99979.88;4990404;28;20538;-47
2023/09/26 08:23:31;;;;;;;4.05;0.77;;;;;;;14.83;90.28;99986.66;4990769;28;20182;-51
2023/09/26 08:26:01;;;;;;;4.63;0.75;;;;;;;14.81;90.48;99991.81;4988427;28;20030;-48
2023/09/26 08:28:29;;;;;;;6.18;0.98;;;;;;;14.80;90.69;99987.44;4986607;28;20068;-48
2023/09/26 08:31:03;;;;;;;5.70;1.33;;;;;;;14.77;91.03;99989.03;4973723;28;20046;-48
2023/09/26 08:33:30;;;;;;;3.20;0.50;;;;;;;14.80;91.43;99987.44;4989043;28;20053;-48
2023/09/26 08:35:57;;;;;;;1.70;0.68;;;;;;;14.82;91.53;99999.00;4986348;28;20047;-56
2023/09/26 08:38:24;;;;;;;1.75;0.40;;;;;;;14.90;91.78;100004.22;4988712;28;20492;-52
2023/09/26 08:40:51;;;;;;;8.98;0.80;;;;;;;14.94;91.65;100013.38;4990113;28;20046;-49
2023/09/26 08:43:26;;;;;;;2.10;0.82;;;;;;;15.00;91.77;100019.38;4989856;28;20129;-51
2023/09/26 08:45:53;;;;;;;4.88;0.68;;;;;;;14.99;91.72;100026.94;4989140;28;20053;-50
2023/09/26 08:48:21;;;;;;;3.63;1.35;;;;;;;14.91;91.45;100028.09;4972566;28;20460;-48
2023/09/26 08:50:49;;;;;;;2.35;0.80;;;;;;;14.77;91.46;100044.75;4989384;28;20445;-49
2023/09/26 08:53:17;;;;;;;4.80;0.70;;;;;;;14.65;91.15;100042.28;4989888;28;20038;-50
2023/09/26 08:55:45;;;;;;;2.65;1.13;;;;;;;14.58;90.95;100036.69;4989995;28;20050;-49
2023/09/26 08:58:15;;;;;;;5.97;0.88;;;;;;;14.53;91.08;100037.84;4989298;28;20388;-48
2023/09/26 09:00:44;;;;;;;1.85;0.82;;;;;;;14.53;91.10;100043.41;4987317;28;20057;-49
2023/09/26 09:03:11;;;;;;;1.90;0.70;;;;;;;14.62;91.04;100057.00;4989031;28;20042;-47
2023/09/26 09:05:42;;;;;;;4.28;0.90;;;;;;;14.71;91.14;100056.66;4989894;28;20058;-48
2023/09/26 09:08:18;;;;;;;8.35;1.15;;;;;;;14.97;91.35;100064.75;4987517;28;20154;-48
2023/09/26 09:10:53;;;;;;;5.97;1.23;;;;;;;15.17;91.00;100069.63;4989699;28;20419;-49
2023/09/26 09:13:30;;;;;;;3.60;0.90;;;;;;;15.64;91.04;100081.75;4989755;28;20034;-49
2023/09/26 09:16:17;;;;;;;3.70;0.88;;;;;;;16.48;90.14;100091.38;4988177;28;20046;-51
2023/09/26 09:18:50;;;;;;;3.78;1.15;;;;;;;17.62;88.23;100102.66;4987248;28;20057;-46
2023/09/26 09:21:23;;;;;;;4.47;1.33;;;;;;;17.96;85.29;100113.25;4987554;28;20439;-49
2023/09/26 09:23:51;;;;;;;4.07;1.08;;;;;;;17.92;85.26;100120.91;4989339;28;20050;-54
2023/09/26 09:26:21;;;;;;;7.20;1.30;;;;;;;18.48;85.03;100125.31;4989403;28;20075;-47
2023/09/26 09:28:52;;;;;;;6.53;1.30;;;;;;;19.26;82.54;100128.91;4989306;28;20133;-46
2023/09/26 09:31:22;;;;;;;7.40;1.10;;;;;;;20.01;79.83;100129.53;4989366;28;20077;-48
2023/09/26 09:33:55;;;;;;;6.22;2.00;;;;;;;20.79;76.95;100127.47;4988617;28;20038;-45
2023/09/26 09:36:23;;;;;;;10.18;1.60;;;;;;;21.37;73.92;100123.97;4988656;28;20137;-47
2023/09/26 09:38:50;;;;;;;6.32;1.00;;;;;;;21.03;72.67;100138.28;4986354;28;20046;-51
2023/09/26 09:41:19;;;;;;;6.13;1.13;;;;;;;20.37;71.93;100143.06;4989846;28;20129;-47
2023/09/26 09:43:46;;;;;;;3.47;0.95;;;;;;;20.37;73.08;100148.69;4988298;28;20050;-46
2023/09/26 09:46:16;;;;;;;6.05;1.17;;;;;;;21.07;71.10;100133.44;4988198;28;20057;-47
2023/09/26 09:48:45;;;;;;;2.92;1.15;;;;;;;21.69;68.15;100145.84;4986472;28;20396;-46
2023/09/26 09:51:15;;;;;;;9.07;1.52;;;;;;;22.21;66.44;100135.41;4985229;28;20038;-49
2023/09/26 09:53:43;;;;;;;2.00;1.15;;;;;;;22.65;64.20;100147.28;4986337;28;20043;-49
2023/09/26 09:56:18;;;;;;;7.70;1.33;;;;;;;23.03;63.22;100140.59;4990329;28;20046;-48
2023/09/26 09:58:50;;;;;;;10.32;2.70;;;;;;;23.28;62.26;100153.25;4988763;28;20046;-47
2023/09/26 10:01:22;;;;;;;4.47;1.15;;;;;;;23.41;59.92;100151.28;4989013;28;20053;-53
2023/09/26 10:03:50;;;;;;;5.82;1.35;;;;;;;23.08;59.20;100163.91;4987616;28;20053;-51
2023/09/26 10:06:20;;;;;;;7.03;1.30;;;;;;;22.47;59.50;100142.06;4988834;28;20042;-46
2023/09/26 10:08:48;;;;;;;4.43;1.10;;;;;;;22.14;59.42;100149.69;4987693;28;20050;-48
2023/09/26 10:11:18;;;;;;;7.18;1.55;;;;;;;22.18;59.41;100138.34;4988483;28;20424;-46
2023/09/26 10:13:47;;;;;;;4.80;0.90;;;;;;;22.67;58.52;100136.34;4987547;28;20038;-46
2023/09/26 10:16:18;;;;;;;6.45;1.25;;;;;;;22.90;57.38;100136.16;4967756;28;20595;-46
2023/09/26 10:18:47;;;;;;;7.22;1.42;;;;;;;23.21;56.19;100134.47;4987694;28;20035;-48
2023/09/26 10:21:22;;;;;;;7.57;1.15;;;;;;;23.44;55.96;100128.59;4963156;28;20563;-48
2023/09/26 10:24:07;;;;;;;8.73;1.52;;;;;;;23.47;55.73;100127.72;4988729;28;20133;-46
2023/09/26 10:26:44;;;;;;;8.70;2.78;;;;;;;23.83;54.01;100138.75;4988192;28;20052;-45
2023/09/26 10:29:21;;;;;;;12.05;2.20;;;;;;;23.63;54.17;100138.16;4989015;28;20146;-47
2023/09/26 10:31:58;;;;;;;8.75;2.10;;;;;;;23.54;53.75;100130.31;4990564;28;20047;-46
2023/09/26 10:34:45;;;;;;;2.53;1.17;;;;;;;23.41;53.72;100134.34;4990768;28;20046;-46
2023/09/26 10:37:20;;;;;;;7.88;1.70;;;;;;;23.53;52.73;100125.94;4992143;28;20562;-45
2023/09/26 10:39:48;;;;;;;4.82;1.40;;;;;;;23.69;52.32;100115.78;4992935;28;20050;-46
2023/09/26 10:42:21;;;;;;;3.15;1.17;;;;;;;23.71;51.60;100122.56;4990988;28;20050;-48
2023/09/26 10:44:51;;;;;;;4.43;1.90;;;;;;;23.52;51.18;100135.63;4992704;28;20038;-46
2023/09/26 10:47:21;;;;;;;4.70;1.02;;;;;;;23.39;51.16;100126.31;4992712;28;20042;-54
2023/09/26 10:49:48;;;;;;;5.05;1.15;;;;;;;23.26;51.07;100145.22;4991971;28;20042;-48
2023/09/26 10:52:16;;;;;;;3.72;1.38;;;;;;;22.95;51.36;100149.72;4974911;28;20149;-48
2023/09/26 10:54:43;;;;;;;3.17;1.00;;;;;;;22.37;51.90;100134.66;4991851;28;20453;-50
2023/09/26 10:57:23;;;;;;;5.53;1.50;;;;;;;21.26;54.12;100131.06;4991342;28;20042;-48
2023/09/26 10:59:50;;;;;;;8.23;2.08;;;;;;;20.72;55.78;100139.66;4992432;28;20038;-49
2023/09/26 11:02:17;;;;;;;6.00;2.25;;;;;;;20.35;56.59;100128.66;4990246;28;20042;-45
2023/09/26 11:04:44;;;;;;;3.75;1.10;;;;;;;20.02;57.35;100130.31;4991780;28;20460;-48
2023/09/26 11:07:31;;;;;;;7.22;1.67;;;;;;;19.78;58.63;100125.84;4986014;28;20050;-45
2023/09/26 11:09:58;;;;;;;5.03;1.80;;;;;;;19.55;58.92;100123.75;4972951;28;20058;-45
2023/09/26 11:12:26;;;;;;;4.85;1.30;;;;;;;19.29;59.27;100130.09;4973951;28;20066;-45
2023/09/26 11:14:58;;;;;;;;;;;;;;;19.06;60.28;100129.94;4990405;28;20166;-45
2023/09/26 11:17:29;;;;;;;6.88;2.10;;;;;;;18.84;60.66;100129.38;4990508;28;20434;-46
2023/09/26 11:19:59;;;;;;;2.70;1.02;;;;;;;18.67;60.84;100127.53;4990534;28;20097;-45
2023/09/26 11:22:27;;;;;;;6.18;2.25;;;;;;;18.59;61.66;100143.63;4991851;28;20038;-45
2023/09/26 11:25:06;;;;;;;9.27;2.17;;;;;;;18.52;61.77;100135.28;4988105;28;20058;-47
2023/09/26 11:27:45;;;;;;;5.22;1.55;;;;;;;18.52;62.04;100124.06;4990445;28;20051;-46
2023/09/26 11:30:20;;;;;;;7.43;1.63;;;;;;;18.55;62.23;100140.06;4991492;28;20054;-47